Acosta, Argentina
Current Conditions -  °F | °C
As of 10:00 AM on Wednesday 26 Nov 2014 (Local Time) from SASA Reporting Station
Broken Clouds Broken Clouds  
Wind Chill: 66°   Ceiling: 1800
Heat Index: 66°   Visibility: 6mi
Dew Point: 61°   Wind: 0mph
Humidity: 83%   Direction: NA
Pressure: 30.09"   Gusts: NA
Location:  25.59°S, 65.46°W
Report Text: SASA 261300Z 00000KT 9000 SCT010 BKN01819/16 Q1019
Loading
Personal Weather Stations






























Interactive Weather Map New forecast layout! Learn more

10-Day Weather Forecast

Advertisements
Track Severe Weather on mobile